sensor_id;sensor_type;location;lat;lon;timestamp;P1;durP1;ratioP1;P2;durP2;ratioP2
15055;SDS011;7626;42.674;23.284;2023-03-01T00:02:19;3.90;;;3.60;;
15055;SDS011;7626;42.674;23.284;2023-03-01T00:04:46;4.00;;;3.70;;
15055;SDS011;7626;42.674;23.284;2023-03-01T00:07:13;4.17;;;3.77;;
15055;SDS011;7626;42.674;23.284;2023-03-01T00:09:39;3.87;;;3.57;;
15055;SDS011;7626;42.674;23.284;2023-03-01T00:12:06;3.47;;;3.17;;
15055;SDS011;7626;42.674;23.284;2023-03-01T00:14:32;3.73;;;3.33;;
15055;SDS011;7626;42.674;23.284;2023-03-01T00:17:00;3.80;;;3.50;;
15055;SDS011;7626;42.674;23.284;2023-03-01T00:19:27;3.70;;;3.40;;
15055;SDS011;7626;42.674;23.284;2023-03-01T00:21:53;4.00;;;3.60;;
15055;SDS011;7626;42.674;23.284;2023-03-01T00:24:20;3.63;;;3.33;;
15055;SDS011;7626;42.674;23.284;2023-03-01T00:26:46;3.80;;;3.50;;
15055;SDS011;7626;42.674;23.284;2023-03-01T00:29:13;3.67;;;3.37;;
15055;SDS011;7626;42.674;23.284;2023-03-01T00:31:39;3.83;;;3.50;;
15055;SDS011;7626;42.674;23.284;2023-03-01T00:34:07;3.67;;;3.37;;
15055;SDS011;7626;42.674;23.284;2023-03-01T00:36:35;3.47;;;3.17;;
15055;SDS011;7626;42.674;23.284;2023-03-01T00:39:02;3.40;;;3.10;;
15055;SDS011;7626;42.674;23.284;2023-03-01T00:41:29;3.60;;;3.30;;
15055;SDS011;7626;42.674;23.284;2023-03-01T00:43:55;3.27;;;2.93;;
15055;SDS011;7626;42.674;23.284;2023-03-01T00:46:23;2.97;;;2.77;;
15055;SDS011;7626;42.674;23.284;2023-03-01T00:48:50;2.90;;;2.70;;
15055;SDS011;7626;42.674;23.284;2023-03-01T00:51:19;3.30;;;3.00;;
15055;SDS011;7626;42.674;23.284;2023-03-01T00:53:45;3.00;;;2.80;;
15055;SDS011;7626;42.674;23.284;2023-03-01T00:56:13;3.30;;;3.00;;
15055;SDS011;7626;42.674;23.284;2023-03-01T00:58:40;2.90;;;2.70;;
15055;SDS011;7626;42.674;23.284;2023-03-01T01:01:07;3.33;;;3.03;;
15055;SDS011;7626;42.674;23.284;2023-03-01T01:03:42;3.10;;;2.87;;
15055;SDS011;7626;42.674;23.284;2023-03-01T01:06:12;2.80;;;2.60;;
15055;SDS011;7626;42.674;23.284;2023-03-01T01:08:40;3.00;;;2.80;;
15055;SDS011;7626;42.674;23.284;2023-03-01T01:11:08;2.80;;;2.60;;
15055;SDS011;7626;42.674;23.284;2023-03-01T01:13:35;2.90;;;2.70;;
15055;SDS011;7626;42.674;23.284;2023-03-01T01:16:01;3.10;;;2.60;;
15055;SDS011;7626;42.674;23.284;2023-03-01T01:18:28;2.53;;;2.33;;
15055;SDS011;7626;42.674;23.284;2023-03-01T01:20:55;2.53;;;2.33;;
15055;SDS011;7626;42.674;23.284;2023-03-01T01:23:21;2.57;;;2.37;;
15055;SDS011;7626;42.674;23.284;2023-03-01T01:25:49;2.60;;;2.40;;
15055;SDS011;7626;42.674;23.284;2023-03-01T01:28:16;2.50;;;2.30;;
15055;SDS011;7626;42.674;23.284;2023-03-01T01:30:42;2.50;;;2.30;;
15055;SDS011;7626;42.674;23.284;2023-03-01T01:33:09;2.37;;;2.17;;
15055;SDS011;7626;42.674;23.284;2023-03-01T01:35:35;2.67;;;2.47;;
15055;SDS011;7626;42.674;23.284;2023-03-01T01:38:01;1.93;;;1.83;;
15055;SDS011;7626;42.674;23.284;2023-03-01T01:40:28;2.17;;;2.07;;
15055;SDS011;7626;42.674;23.284;2023-03-01T01:42:56;2.03;;;1.90;;
15055;SDS011;7626;42.674;23.284;2023-03-01T01:45:27;2.10;;;2.00;;
15055;SDS011;7626;42.674;23.284;2023-03-01T01:47:55;2.10;;;2.00;;
15055;SDS011;7626;42.674;23.284;2023-03-01T01:50:23;1.80;;;1.70;;
15055;SDS011;7626;42.674;23.284;2023-03-01T01:52:50;2.00;;;1.80;;
15055;SDS011;7626;42.674;23.284;2023-03-01T01:55:19;1.57;;;1.47;;
15055;SDS011;7626;42.674;23.284;2023-03-01T01:57:47;1.80;;;1.70;;
15055;SDS011;7626;42.674;23.284;2023-03-01T02:00:16;1.80;;;1.70;;
15055;SDS011;7626;42.674;23.284;2023-03-01T02:02:45;1.90;;;1.70;;
15055;SDS011;7626;42.674;23.284;2023-03-01T02:05:12;1.60;;;1.50;;
15055;SDS011;7626;42.674;23.284;2023-03-01T02:07:41;1.90;;;1.80;;
15055;SDS011;7626;42.674;23.284;2023-03-01T02:10:08;1.63;;;1.53;;
15055;SDS011;7626;42.674;23.284;2023-03-01T02:12:35;1.80;;;1.70;;
15055;SDS011;7626;42.674;23.284;2023-03-01T02:15:02;1.70;;;1.60;;
15055;SDS011;7626;42.674;23.284;2023-03-01T02:17:30;2.00;;;1.90;;
15055;SDS011;7626;42.674;23.284;2023-03-01T02:19:59;1.70;;;1.60;;
15055;SDS011;7626;42.674;23.284;2023-03-01T02:22:32;1.60;;;1.50;;
15055;SDS011;7626;42.674;23.284;2023-03-01T02:25:03;1.70;;;1.60;;
15055;SDS011;7626;42.674;23.284;2023-03-01T02:27:33;1.77;;;1.67;;
15055;SDS011;7626;42.674;23.284;2023-03-01T02:30:03;1.67;;;1.57;;
15055;SDS011;7626;42.674;23.284;2023-03-01T02:32:30;1.73;;;1.63;;
15055;SDS011;7626;42.674;23.284;2023-03-01T02:34:56;1.53;;;1.43;;
15055;SDS011;7626;42.674;23.284;2023-03-01T02:37:22;1.60;;;1.50;;
15055;SDS011;7626;42.674;23.284;2023-03-01T02:39:51;1.63;;;1.53;;
15055;SDS011;7626;42.674;23.284;2023-03-01T02:42:20;1.80;;;1.70;;
15055;SDS011;7626;42.674;23.284;2023-03-01T02:44:48;1.50;;;1.40;;
15055;SDS011;7626;42.674;23.284;2023-03-01T02:47:16;1.80;;;1.70;;
15055;SDS011;7626;42.674;23.284;2023-03-01T02:49:43;1.73;;;1.63;;
15055;SDS011;7626;42.674;23.284;2023-03-01T02:55:03;1.90;;;1.80;;
15055;SDS011;7626;42.674;23.284;2023-03-01T02:57:33;1.77;;;1.67;;
15055;SDS011;7626;42.674;23.284;2023-03-01T03:00:02;2.00;;;1.90;;
15055;SDS011;7626;42.674;23.284;2023-03-01T03:02:33;2.20;;;2.10;;
15055;SDS011;7626;42.674;23.284;2023-03-01T03:05:04;2.10;;;2.00;;
15055;SDS011;7626;42.674;23.284;2023-03-01T03:07:31;2.13;;;2.00;;
15055;SDS011;7626;42.674;23.284;2023-03-01T03:09:58;2.50;;;2.30;;
15055;SDS011;7626;42.674;23.284;2023-03-01T03:12:24;2.50;;;2.33;;
15055;SDS011;7626;42.674;23.284;2023-03-01T03:14:51;2.57;;;2.37;;
15055;SDS011;7626;42.674;23.284;2023-03-01T03:17:17;2.53;;;2.33;;
15055;SDS011;7626;42.674;23.284;2023-03-01T03:19:45;2.70;;;2.50;;
15055;SDS011;7626;42.674;23.284;2023-03-01T03:22:12;2.60;;;2.40;;
15055;SDS011;7626;42.674;23.284;2023-03-01T03:24:38;2.83;;;2.63;;
15055;SDS011;7626;42.674;23.284;2023-03-01T03:27:05;3.00;;;2.80;;
15055;SDS011;7626;42.674;23.284;2023-03-01T03:29:31;2.70;;;2.50;;
15055;SDS011;7626;42.674;23.284;2023-03-01T03:31:58;3.10;;;2.90;;
15055;SDS011;7626;42.674;23.284;2023-03-01T03:34:24;3.30;;;3.10;;
15055;SDS011;7626;42.674;23.284;2023-03-01T03:36:54;3.10;;;2.90;;
15055;SDS011;7626;42.674;23.284;2023-03-01T03:39:24;3.23;;;2.97;;
15055;SDS011;7626;42.674;23.284;2023-03-01T03:41:51;3.50;;;3.30;;
15055;SDS011;7626;42.674;23.284;2023-03-01T03:44:17;3.67;;;3.30;;
15055;SDS011;7626;42.674;23.284;2023-03-01T03:46:44;3.37;;;3.17;;
15055;SDS011;7626;42.674;23.284;2023-03-01T03:49:10;3.30;;;3.10;;
15055;SDS011;7626;42.674;23.284;2023-03-01T03:51:37;3.20;;;3.00;;
15055;SDS011;7626;42.674;23.284;2023-03-01T03:54:04;3.57;;;3.27;;
15055;SDS011;7626;42.674;23.284;2023-03-01T03:56:31;3.53;;;3.33;;
15055;SDS011;7626;42.674;23.284;2023-03-01T03:58:57;3.10;;;2.90;;
15055;SDS011;7626;42.674;23.284;2023-03-01T04:01:24;3.20;;;2.90;;
15055;SDS011;7626;42.674;23.284;2023-03-01T04:03:50;3.00;;;2.80;;
15055;SDS011;7626;42.674;23.284;2023-03-01T04:06:19;3.20;;;3.00;;
15055;SDS011;7626;42.674;23.284;2023-03-01T04:08:46;2.90;;;2.70;;
15055;SDS011;7626;42.674;23.284;2023-03-01T04:11:17;3.30;;;3.00;;
15055;SDS011;7626;42.674;23.284;2023-03-01T04:13:53;3.07;;;2.80;;
15055;SDS011;7626;42.674;23.284;2023-03-01T04:16:19;3.27;;;2.97;;
15055;SDS011;7626;42.674;23.284;2023-03-01T04:18:46;3.00;;;2.70;;
15055;SDS011;7626;42.674;23.284;2023-03-01T04:21:12;2.70;;;2.50;;
15055;SDS011;7626;42.674;23.284;2023-03-01T04:23:39;2.67;;;2.47;;
15055;SDS011;7626;42.674;23.284;2023-03-01T04:26:07;2.80;;;2.60;;
15055;SDS011;7626;42.674;23.284;2023-03-01T04:28:35;3.10;;;2.90;;
15055;SDS011;7626;42.674;23.284;2023-03-01T04:31:03;2.90;;;2.70;;
15055;SDS011;7626;42.674;23.284;2023-03-01T04:33:37;2.83;;;2.53;;
15055;SDS011;7626;42.674;23.284;2023-03-01T04:36:04;3.13;;;2.83;;
15055;SDS011;7626;42.674;23.284;2023-03-01T04:38:33;2.90;;;2.70;;
15055;SDS011;7626;42.674;23.284;2023-03-01T04:41:00;3.87;;;2.73;;
15055;SDS011;7626;42.674;23.284;2023-03-01T04:43:28;2.70;;;2.50;;
15055;SDS011;7626;42.674;23.284;2023-03-01T04:45:56;2.90;;;2.70;;
15055;SDS011;7626;42.674;23.284;2023-03-01T04:48:27;3.13;;;2.83;;
15055;SDS011;7626;42.674;23.284;2023-03-01T04:50:54;2.80;;;2.60;;
15055;SDS011;7626;42.674;23.284;2023-03-01T04:53:20;2.60;;;2.40;;
15055;SDS011;7626;42.674;23.284;2023-03-01T04:55:47;2.90;;;2.70;;
15055;SDS011;7626;42.674;23.284;2023-03-01T04:58:13;2.80;;;2.60;;
15055;SDS011;7626;42.674;23.284;2023-03-01T05:00:40;2.83;;;2.63;;
15055;SDS011;7626;42.674;23.284;2023-03-01T05:03:08;2.80;;;2.60;;
15055;SDS011;7626;42.674;23.284;2023-03-01T05:05:36;3.00;;;2.80;;
15055;SDS011;7626;42.674;23.284;2023-03-01T05:08:03;3.07;;;2.87;;
15055;SDS011;7626;42.674;23.284;2023-03-01T05:10:31;3.13;;;2.90;;
15055;SDS011;7626;42.674;23.284;2023-03-01T05:12:58;2.93;;;2.73;;
15055;SDS011;7626;42.674;23.284;2023-03-01T05:15:26;2.77;;;2.50;;
15055;SDS011;7626;42.674;23.284;2023-03-01T05:17:53;2.83;;;2.60;;
15055;SDS011;7626;42.674;23.284;2023-03-01T05:20:21;11.03;;;3.13;;
15055;SDS011;7626;42.674;23.284;2023-03-01T05:22:49;3.50;;;2.87;;
15055;SDS011;7626;42.674;23.284;2023-03-01T05:25:15;3.00;;;2.67;;
15055;SDS011;7626;42.674;23.284;2023-03-01T05:27:43;3.73;;;2.77;;
15055;SDS011;7626;42.674;23.284;2023-03-01T05:30:10;3.17;;;2.87;;
15055;SDS011;7626;42.674;23.284;2023-03-01T05:32:42;3.80;;;2.73;;
15055;SDS011;7626;42.674;23.284;2023-03-01T05:35:09;2.87;;;2.67;;
15055;SDS011;7626;42.674;23.284;2023-03-01T05:37:40;3.40;;;3.00;;
15055;SDS011;7626;42.674;23.284;2023-03-01T05:40:07;2.77;;;2.57;;
15055;SDS011;7626;42.674;23.284;2023-03-01T05:42:40;3.27;;;2.70;;
15055;SDS011;7626;42.674;23.284;2023-03-01T05:45:07;3.53;;;2.80;;
15055;SDS011;7626;42.674;23.284;2023-03-01T05:47:35;3.13;;;2.83;;
15055;SDS011;7626;42.674;23.284;2023-03-01T05:50:03;2.70;;;2.50;;
15055;SDS011;7626;42.674;23.284;2023-03-01T05:52:29;2.67;;;2.47;;
15055;SDS011;7626;42.674;23.284;2023-03-01T05:54:57;3.00;;;2.70;;
15055;SDS011;7626;42.674;23.284;2023-03-01T05:57:24;2.53;;;2.33;;
15055;SDS011;7626;42.674;23.284;2023-03-01T05:59:50;2.70;;;2.50;;
15055;SDS011;7626;42.674;23.284;2023-03-01T06:05:03;3.07;;;2.87;;
15055;SDS011;7626;42.674;23.284;2023-03-01T06:07:29;2.70;;;2.50;;
15055;SDS011;7626;42.674;23.284;2023-03-01T06:09:57;2.43;;;2.23;;
15055;SDS011;7626;42.674;23.284;2023-03-01T06:12:24;3.20;;;2.60;;
15055;SDS011;7626;42.674;23.284;2023-03-01T06:14:50;2.93;;;2.73;;
15055;SDS011;7626;42.674;23.284;2023-03-01T06:17:17;3.57;;;3.27;;
15055;SDS011;7626;42.674;23.284;2023-03-01T06:19:43;3.47;;;3.10;;
15055;SDS011;7626;42.674;23.284;2023-03-01T06:22:09;4.17;;;3.40;;
15055;SDS011;7626;42.674;23.284;2023-03-01T06:24:36;4.37;;;3.33;;
15055;SDS011;7626;42.674;23.284;2023-03-01T06:27:04;4.87;;;3.50;;
15055;SDS011;7626;42.674;23.284;2023-03-01T06:29:31;4.50;;;4.10;;
15055;SDS011;7626;42.674;23.284;2023-03-01T06:31:57;4.57;;;3.53;;
15055;SDS011;7626;42.674;23.284;2023-03-01T06:34:24;3.73;;;3.37;;
15055;SDS011;7626;42.674;23.284;2023-03-01T06:36:50;4.67;;;3.27;;
15055;SDS011;7626;42.674;23.284;2023-03-01T06:39:17;3.50;;;3.20;;
15055;SDS011;7626;42.674;23.284;2023-03-01T06:41:43;4.00;;;3.70;;
15055;SDS011;7626;42.674;23.284;2023-03-01T06:44:11;3.73;;;3.43;;
15055;SDS011;7626;42.674;23.284;2023-03-01T06:46:38;3.90;;;3.60;;
15055;SDS011;7626;42.674;23.284;2023-03-01T06:49:04;4.60;;;3.73;;
15055;SDS011;7626;42.674;23.284;2023-03-01T06:51:34;3.20;;;2.90;;
15055;SDS011;7626;42.674;23.284;2023-03-01T06:54:00;3.57;;;3.20;;
15055;SDS011;7626;42.674;23.284;2023-03-01T06:56:27;3.50;;;3.20;;
15055;SDS011;7626;42.674;23.284;2023-03-01T06:58:53;3.57;;;3.27;;
15055;SDS011;7626;42.674;23.284;2023-03-01T07:01:21;3.93;;;3.23;;
15055;SDS011;7626;42.674;23.284;2023-03-01T07:03:48;3.73;;;3.43;;
15055;SDS011;7626;42.674;23.284;2023-03-01T07:06:14;3.80;;;3.33;;
15055;SDS011;7626;42.674;23.284;2023-03-01T07:08:41;3.67;;;3.20;;
15055;SDS011;7626;42.674;23.284;2023-03-01T07:11:07;3.83;;;3.43;;
15055;SDS011;7626;42.674;23.284;2023-03-01T07:13:34;3.60;;;3.30;;
15055;SDS011;7626;42.674;23.284;2023-03-01T07:16:00;4.20;;;3.47;;
15055;SDS011;7626;42.674;23.284;2023-03-01T07:18:28;4.43;;;3.50;;
15055;SDS011;7626;42.674;23.284;2023-03-01T07:20:54;3.43;;;3.13;;
15055;SDS011;7626;42.674;23.284;2023-03-01T07:23:21;3.87;;;3.30;;
15055;SDS011;7626;42.674;23.284;2023-03-01T07:25:51;3.00;;;2.70;;
15055;SDS011;7626;42.674;23.284;2023-03-01T07:28:17;3.50;;;3.20;;
15055;SDS011;7626;42.674;23.284;2023-03-01T07:30:44;3.37;;;3.07;;
15055;SDS011;7626;42.674;23.284;2023-03-01T07:33:10;3.90;;;2.90;;
15055;SDS011;7626;42.674;23.284;2023-03-01T07:35:38;3.77;;;3.13;;
15055;SDS011;7626;42.674;23.284;2023-03-01T07:38:05;4.23;;;2.90;;
15055;SDS011;7626;42.674;23.284;2023-03-01T07:40:31;3.40;;;3.10;;
15055;SDS011;7626;42.674;23.284;2023-03-01T07:42:59;3.07;;;2.67;;
15055;SDS011;7626;42.674;23.284;2023-03-01T07:45:26;3.27;;;2.97;;
15055;SDS011;7626;42.674;23.284;2023-03-01T07:47:53;4.37;;;2.70;;
15055;SDS011;7626;42.674;23.284;2023-03-01T07:50:20;4.13;;;2.63;;
15055;SDS011;7626;42.674;23.284;2023-03-01T07:52:48;3.23;;;2.93;;
15055;SDS011;7626;42.674;23.284;2023-03-01T07:55:15;3.17;;;2.93;;
15055;SDS011;7626;42.674;23.284;2023-03-01T07:57:42;3.43;;;2.67;;
15055;SDS011;7626;42.674;23.284;2023-03-01T08:00:10;4.17;;;2.77;;
15055;SDS011;7626;42.674;23.284;2023-03-01T08:02:36;3.00;;;2.63;;
15055;SDS011;7626;42.674;23.284;2023-03-01T08:05:04;3.63;;;2.93;;
15055;SDS011;7626;42.674;23.284;2023-03-01T08:07:30;3.73;;;3.03;;
15055;SDS011;7626;42.674;23.284;2023-03-01T08:09:58;3.37;;;2.90;;
15055;SDS011;7626;42.674;23.284;2023-03-01T08:12:26;3.83;;;2.90;;
15055;SDS011;7626;42.674;23.284;2023-03-01T08:14:53;3.30;;;3.00;;
15055;SDS011;7626;42.674;23.284;2023-03-01T08:17:19;4.30;;;2.97;;
15055;SDS011;7626;42.674;23.284;2023-03-01T08:19:46;4.60;;;2.70;;
15055;SDS011;7626;42.674;23.284;2023-03-01T08:22:12;3.57;;;2.80;;
15055;SDS011;7626;42.674;23.284;2023-03-01T08:24:39;3.30;;;2.97;;
15055;SDS011;7626;42.674;23.284;2023-03-01T08:27:07;3.37;;;3.03;;
15055;SDS011;7626;42.674;23.284;2023-03-01T08:29:33;4.17;;;3.73;;
15055;SDS011;7626;42.674;23.284;2023-03-01T08:32:00;4.27;;;3.97;;
15055;SDS011;7626;42.674;23.284;2023-03-01T08:34:27;5.47;;;4.50;;
15055;SDS011;7626;42.674;23.284;2023-03-01T08:36:53;8.53;;;4.83;;
15055;SDS011;7626;42.674;23.284;2023-03-01T08:39:20;4.97;;;4.57;;
15055;SDS011;7626;42.674;23.284;2023-03-01T08:41:46;4.50;;;4.10;;
15055;SDS011;7626;42.674;23.284;2023-03-01T08:44:14;5.10;;;4.30;;
15055;SDS011;7626;42.674;23.284;2023-03-01T08:46:42;4.57;;;4.03;;
15055;SDS011;7626;42.674;23.284;2023-03-01T08:49:09;4.47;;;4.07;;
15055;SDS011;7626;42.674;23.284;2023-03-01T08:51:35;4.40;;;3.83;;
15055;SDS011;7626;42.674;23.284;2023-03-01T08:54:02;4.10;;;3.80;;
15055;SDS011;7626;42.674;23.284;2023-03-01T08:56:29;4.10;;;3.80;;
15055;SDS011;7626;42.674;23.284;2023-03-01T08:58:55;4.77;;;3.70;;
15055;SDS011;7626;42.674;23.284;2023-03-01T09:01:23;4.03;;;3.60;;
15055;SDS011;7626;42.674;23.284;2023-03-01T09:03:50;3.80;;;3.50;;
15055;SDS011;7626;42.674;23.284;2023-03-01T09:06:16;3.90;;;3.60;;
15055;SDS011;7626;42.674;23.284;2023-03-01T09:08:43;3.90;;;3.60;;
15055;SDS011;7626;42.674;23.284;2023-03-01T09:11:11;3.93;;;3.40;;
15055;SDS011;7626;42.674;23.284;2023-03-01T09:13:38;3.53;;;3.23;;
15055;SDS011;7626;42.674;23.284;2023-03-01T09:16:05;4.00;;;3.60;;
15055;SDS011;7626;42.674;23.284;2023-03-01T09:18:34;4.87;;;4.37;;
15055;SDS011;7626;42.674;23.284;2023-03-01T09:21:01;4.43;;;3.60;;
15055;SDS011;7626;42.674;23.284;2023-03-01T09:23:32;3.90;;;3.60;;
15055;SDS011;7626;42.674;23.284;2023-03-01T09:25:59;3.80;;;3.50;;
15055;SDS011;7626;42.674;23.284;2023-03-01T09:28:25;3.50;;;3.20;;
15055;SDS011;7626;42.674;23.284;2023-03-01T09:30:52;3.70;;;3.40;;
15055;SDS011;7626;42.674;23.284;2023-03-01T09:33:18;3.73;;;3.43;;
15055;SDS011;7626;42.674;23.284;2023-03-01T09:35:46;5.93;;;3.70;;
15055;SDS011;7626;42.674;23.284;2023-03-01T09:38:13;3.50;;;3.20;;
15055;SDS011;7626;42.674;23.284;2023-03-01T09:40:42;4.50;;;3.40;;
15055;SDS011;7626;42.674;23.284;2023-03-01T09:43:13;3.60;;;3.20;;
15055;SDS011;7626;42.674;23.284;2023-03-01T09:45:41;3.53;;;3.00;;
15055;SDS011;7626;42.674;23.284;2023-03-01T09:48:15;3.97;;;3.47;;
15055;SDS011;7626;42.674;23.284;2023-03-01T09:50:42;4.47;;;4.00;;
15055;SDS011;7626;42.674;23.284;2023-03-01T09:53:15;4.50;;;4.10;;
15055;SDS011;7626;42.674;23.284;2023-03-01T09:55:43;5.67;;;3.93;;
15055;SDS011;7626;42.674;23.284;2023-03-01T09:58:20;3.90;;;3.50;;
15055;SDS011;7626;42.674;23.284;2023-03-01T10:00:52;3.40;;;3.10;;
15055;SDS011;7626;42.674;23.284;2023-03-01T10:03:21;3.70;;;3.23;;
15055;SDS011;7626;42.674;23.284;2023-03-01T10:05:53;4.10;;;2.90;;
15055;SDS011;7626;42.674;23.284;2023-03-01T10:08:27;3.10;;;2.80;;
15055;SDS011;7626;42.674;23.284;2023-03-01T10:10:56;2.77;;;2.53;;
15055;SDS011;7626;42.674;23.284;2023-03-01T10:13:23;3.20;;;2.90;;
15055;SDS011;7626;42.674;23.284;2023-03-01T10:15:53;3.30;;;2.30;;
15055;SDS011;7626;42.674;23.284;2023-03-01T10:18:21;2.73;;;2.53;;
15055;SDS011;7626;42.674;23.284;2023-03-01T10:20:51;2.87;;;2.40;;
15055;SDS011;7626;42.674;23.284;2023-03-01T10:23:18;2.60;;;2.40;;
15055;SDS011;7626;42.674;23.284;2023-03-01T10:25:50;2.80;;;2.60;;
15055;SDS011;7626;42.674;23.284;2023-03-01T10:28:20;2.93;;;2.60;;
15055;SDS011;7626;42.674;23.284;2023-03-01T10:30:49;2.70;;;2.50;;
15055;SDS011;7626;42.674;23.284;2023-03-01T10:33:16;3.10;;;2.67;;
15055;SDS011;7626;42.674;23.284;2023-03-01T10:35:43;3.27;;;2.97;;
15055;SDS011;7626;42.674;23.284;2023-03-01T10:38:10;3.03;;;2.70;;
15055;SDS011;7626;42.674;23.284;2023-03-01T10:40:49;3.50;;;3.20;;
15055;SDS011;7626;42.674;23.284;2023-03-01T10:43:17;3.20;;;2.90;;
15055;SDS011;7626;42.674;23.284;2023-03-01T10:45:43;3.60;;;3.20;;
15055;SDS011;7626;42.674;23.284;2023-03-01T10:48:14;3.00;;;2.80;;
15055;SDS011;7626;42.674;23.284;2023-03-01T10:50:41;3.57;;;3.23;;
15055;SDS011;7626;42.674;23.284;2023-03-01T10:53:16;3.10;;;2.80;;
15055;SDS011;7626;42.674;23.284;2023-03-01T10:55:46;3.20;;;2.90;;
15055;SDS011;7626;42.674;23.284;2023-03-01T10:58:18;3.60;;;2.90;;
15055;SDS011;7626;42.674;23.284;2023-03-01T11:00:46;3.80;;;3.50;;
15055;SDS011;7626;42.674;23.284;2023-03-01T11:03:14;3.70;;;3.40;;
15055;SDS011;7626;42.674;23.284;2023-03-01T11:08:32;3.57;;;3.27;;
15055;SDS011;7626;42.674;23.284;2023-03-01T11:13:51;5.50;;;3.40;;
15055;SDS011;7626;42.674;23.284;2023-03-01T11:16:22;3.57;;;3.27;;
15055;SDS011;7626;42.674;23.284;2023-03-01T11:18:55;3.90;;;3.60;;
15055;SDS011;7626;42.674;23.284;2023-03-01T11:21:22;4.20;;;3.80;;
15055;SDS011;7626;42.674;23.284;2023-03-01T11:23:49;4.60;;;3.80;;
15055;SDS011;7626;42.674;23.284;2023-03-01T11:26:15;4.10;;;3.70;;
15055;SDS011;7626;42.674;23.284;2023-03-01T11:28:43;4.10;;;3.70;;
15055;SDS011;7626;42.674;23.284;2023-03-01T11:31:16;4.57;;;4.17;;
15055;SDS011;7626;42.674;23.284;2023-03-01T11:33:45;4.43;;;4.03;;
15055;SDS011;7626;42.674;23.284;2023-03-01T11:36:16;4.50;;;4.10;;
15055;SDS011;7626;42.674;23.284;2023-03-01T11:38:43;4.40;;;4.00;;
15055;SDS011;7626;42.674;23.284;2023-03-01T11:41:11;4.30;;;3.90;;
15055;SDS011;7626;42.674;23.284;2023-03-01T11:43:42;4.00;;;3.60;;
15055;SDS011;7626;42.674;23.284;2023-03-01T11:46:22;4.30;;;3.90;;
15055;SDS011;7626;42.674;23.284;2023-03-01T11:48:53;5.37;;;4.07;;
15055;SDS011;7626;42.674;23.284;2023-03-01T11:51:24;3.70;;;3.40;;
15055;SDS011;7626;42.674;23.284;2023-03-01T11:53:58;3.80;;;3.50;;
15055;SDS011;7626;42.674;23.284;2023-03-01T11:56:28;4.53;;;3.27;;
15055;SDS011;7626;42.674;23.284;2023-03-01T11:59:08;3.63;;;3.33;;
15055;SDS011;7626;42.674;23.284;2023-03-01T12:01:44;3.87;;;3.17;;
15055;SDS011;7626;42.674;23.284;2023-03-01T12:04:27;3.60;;;3.30;;
15055;SDS011;7626;42.674;23.284;2023-03-01T12:06:57;3.80;;;3.50;;
15055;SDS011;7626;42.674;23.284;2023-03-01T12:12:11;4.10;;;3.80;;
15055;SDS011;7626;42.674;23.284;2023-03-01T12:17:39;4.17;;;3.80;;
15055;SDS011;7626;42.674;23.284;2023-03-01T12:20:14;4.73;;;3.97;;
15055;SDS011;7626;42.674;23.284;2023-03-01T12:22:48;4.20;;;3.90;;
15055;SDS011;7626;42.674;23.284;2023-03-01T12:25:21;4.30;;;3.90;;
15055;SDS011;7626;42.674;23.284;2023-03-01T12:28:04;4.80;;;4.20;;
15055;SDS011;7626;42.674;23.284;2023-03-01T12:30:37;4.60;;;3.97;;
15055;SDS011;7626;42.674;23.284;2023-03-01T12:33:11;4.53;;;4.13;;
15055;SDS011;7626;42.674;23.284;2023-03-01T12:38:30;5.37;;;4.33;;
15055;SDS011;7626;42.674;23.284;2023-03-01T12:41:06;5.57;;;4.97;;
15055;SDS011;7626;42.674;23.284;2023-03-01T12:43:41;4.70;;;4.30;;
15055;SDS011;7626;42.674;23.284;2023-03-01T12:46:15;5.50;;;5.00;;
15055;SDS011;7626;42.674;23.284;2023-03-01T12:48:49;5.03;;;4.60;;
15055;SDS011;7626;42.674;23.284;2023-03-01T12:51:20;4.23;;;3.93;;
15055;SDS011;7626;42.674;23.284;2023-03-01T12:53:50;4.27;;;3.83;;
15055;SDS011;7626;42.674;23.284;2023-03-01T12:56:17;4.70;;;4.30;;
15055;SDS011;7626;42.674;23.284;2023-03-01T12:58:46;4.53;;;4.13;;
15055;SDS011;7626;42.674;23.284;2023-03-01T13:01:19;5.20;;;4.70;;
15055;SDS011;7626;42.674;23.284;2023-03-01T13:03:55;4.67;;;4.27;;
15055;SDS011;7626;42.674;23.284;2023-03-01T13:06:25;4.47;;;4.07;;
15055;SDS011;7626;42.674;23.284;2023-03-01T13:08:55;4.30;;;3.90;;
15055;SDS011;7626;42.674;23.284;2023-03-01T13:11:25;4.30;;;4.00;;
15055;SDS011;7626;42.674;23.284;2023-03-01T13:13:52;4.03;;;3.70;;
15055;SDS011;7626;42.674;23.284;2023-03-01T13:16:39;4.47;;;4.13;;
15055;SDS011;7626;42.674;23.284;2023-03-01T13:19:12;4.53;;;4.03;;
15055;SDS011;7626;42.674;23.284;2023-03-01T13:21:39;4.63;;;4.23;;
15055;SDS011;7626;42.674;23.284;2023-03-01T13:29:29;4.97;;;4.23;;
15055;SDS011;7626;42.674;23.284;2023-03-01T13:32:18;4.40;;;3.57;;
15055;SDS011;7626;42.674;23.284;2023-03-01T13:34:50;3.90;;;3.60;;
15055;SDS011;7626;42.674;23.284;2023-03-01T13:37:24;4.37;;;3.60;;
15055;SDS011;7626;42.674;23.284;2023-03-01T13:39:54;4.23;;;3.83;;
15055;SDS011;7626;42.674;23.284;2023-03-01T13:42:39;4.20;;;3.80;;
15055;SDS011;7626;42.674;23.284;2023-03-01T13:45:14;4.50;;;4.07;;
15055;SDS011;7626;42.674;23.284;2023-03-01T13:47:42;4.50;;;4.10;;
15055;SDS011;7626;42.674;23.284;2023-03-01T13:50:17;4.37;;;3.97;;
15055;SDS011;7626;42.674;23.284;2023-03-01T13:52:46;4.40;;;4.00;;
15055;SDS011;7626;42.674;23.284;2023-03-01T13:55:17;4.50;;;4.10;;
15055;SDS011;7626;42.674;23.284;2023-03-01T13:57:45;4.33;;;3.97;;
15055;SDS011;7626;42.674;23.284;2023-03-01T14:00:24;4.53;;;4.07;;
15055;SDS011;7626;42.674;23.284;2023-03-01T14:02:59;4.20;;;3.80;;
15055;SDS011;7626;42.674;23.284;2023-03-01T14:05:27;5.33;;;4.50;;
15055;SDS011;7626;42.674;23.284;2023-03-01T14:07:54;4.27;;;3.97;;
15055;SDS011;7626;42.674;23.284;2023-03-01T14:10:20;4.37;;;3.97;;
15055;SDS011;7626;42.674;23.284;2023-03-01T14:12:48;4.67;;;4.27;;
15055;SDS011;7626;42.674;23.284;2023-03-01T14:15:16;5.37;;;4.13;;
15055;SDS011;7626;42.674;23.284;2023-03-01T14:17:47;4.50;;;4.13;;
15055;SDS011;7626;42.674;23.284;2023-03-01T14:20:19;4.50;;;4.10;;
15055;SDS011;7626;42.674;23.284;2023-03-01T14:22:48;4.57;;;4.17;;
15055;SDS011;7626;42.674;23.284;2023-03-01T14:25:20;5.40;;;4.90;;
15055;SDS011;7626;42.674;23.284;2023-03-01T14:27:51;5.10;;;4.57;;
15055;SDS011;7626;42.674;23.284;2023-03-01T14:30:19;4.70;;;4.30;;
15055;SDS011;7626;42.674;23.284;2023-03-01T14:32:52;4.67;;;4.27;;
15055;SDS011;7626;42.674;23.284;2023-03-01T14:35:19;4.20;;;3.80;;
15055;SDS011;7626;42.674;23.284;2023-03-01T14:37:48;5.83;;;4.23;;
15055;SDS011;7626;42.674;23.284;2023-03-01T14:40:20;4.73;;;4.33;;
15055;SDS011;7626;42.674;23.284;2023-03-01T14:42:47;5.13;;;4.20;;
15055;SDS011;7626;42.674;23.284;2023-03-01T14:45:13;4.70;;;4.30;;
15055;SDS011;7626;42.674;23.284;2023-03-01T14:47:40;4.70;;;3.93;;
15055;SDS011;7626;42.674;23.284;2023-03-01T14:50:08;5.73;;;4.40;;
15055;SDS011;7626;42.674;23.284;2023-03-01T14:52:37;4.57;;;4.17;;
15055;SDS011;7626;42.674;23.284;2023-03-01T14:55:07;4.40;;;4.00;;
15055;SDS011;7626;42.674;23.284;2023-03-01T14:57:42;4.67;;;3.73;;
15055;SDS011;7626;42.674;23.284;2023-03-01T15:00:10;5.03;;;3.80;;
15055;SDS011;7626;42.674;23.284;2023-03-01T15:02:42;3.80;;;3.40;;
15055;SDS011;7626;42.674;23.284;2023-03-01T15:05:09;3.70;;;3.37;;
15055;SDS011;7626;42.674;23.284;2023-03-01T15:07:37;3.40;;;3.10;;
15055;SDS011;7626;42.674;23.284;2023-03-01T15:10:07;5.70;;;3.67;;
15055;SDS011;7626;42.674;23.284;2023-03-01T15:12:40;5.70;;;3.53;;
15055;SDS011;7626;42.674;23.284;2023-03-01T15:15:30;4.30;;;3.50;;
15055;SDS011;7626;42.674;23.284;2023-03-01T15:17:57;4.37;;;3.60;;
15055;SDS011;7626;42.674;23.284;2023-03-01T15:20:25;7.83;;;4.60;;
15055;SDS011;7626;42.674;23.284;2023-03-01T15:22:54;4.90;;;3.90;;